Air Navigation Services of Czech Republic
Airport: LKNA Updated:  11.08.2020 02:00:27  UTC
 METAR LKNA 11.08. 02:00 ...
METAR LKNA 110200Z 03004KT CAVOK 21/16 Q1018 RMK BLU=
 TAF LKNA 10.08. 23:00 ...
TAF LKNA 102300Z 1100/1200 06008KT CAVOK      TEMPO 1100/1200 03014G26KT 7000 SHRA SCT035TCU      PROB30 TEMPO 1100/1122 4000 TSRA SCT035CB=